createdAt,value
2018-07-13T00:00:03.636Z,66.58
2018-07-13T00:02:34.529Z,66.96
2018-07-13T00:05:08.776Z,66.80
2018-07-13T00:07:38.603Z,66.83
2018-07-13T00:10:07.215Z,66.89
2018-07-13T00:12:36.139Z,66.99
2018-07-13T00:15:07.660Z,65.92
2018-07-13T00:17:36.418Z,66.19
2018-07-13T00:20:05.141Z,65.82
2018-07-13T00:22:33.872Z,66.20
2018-07-13T00:25:02.473Z,66.04
2018-07-13T00:27:31.009Z,65.46
2018-07-13T00:29:59.615Z,65.47
2018-07-13T00:32:28.180Z,65.82
2018-07-13T00:34:56.722Z,66.05
2018-07-13T00:37:25.688Z,65.94
2018-07-13T00:39:54.258Z,65.36
2018-07-13T00:42:22.919Z,65.47
2018-07-13T00:44:51.472Z,64.89
2018-07-13T00:47:21.193Z,65.38
2018-07-13T00:49:49.806Z,65.21
2018-07-13T00:52:18.352Z,65.64
2018-07-13T00:54:46.904Z,65.52
2018-07-13T00:57:15.580Z,65.90
2018-07-13T00:59:44.140Z,65.69
2018-07-13T01:02:12.718Z,65.61
2018-07-13T01:04:41.364Z,65.84
2018-07-13T01:07:10.299Z,65.32
2018-07-13T01:09:39.090Z,65.33
2018-07-13T01:12:07.646Z,65.40
2018-07-13T01:14:36.216Z,65.18
2018-07-13T01:17:04.899Z,65.67
2018-07-13T01:19:33.428Z,66.76
2018-07-13T01:22:02.056Z,67.32
2018-07-13T01:24:30.640Z,67.24
2018-07-13T01:26:59.178Z,67.67
2018-07-13T01:29:27.897Z,67.11
2018-07-13T01:31:56.493Z,67.33
2018-07-13T01:34:25.082Z,67.63
2018-07-13T01:36:53.993Z,67.34
2018-07-13T01:39:22.993Z,67.17
2018-07-13T01:41:51.624Z,67.44
2018-07-13T01:44:20.541Z,67.78
2018-07-13T01:46:49.138Z,67.45
2018-07-13T01:49:18.594Z,67.86
2018-07-13T01:51:47.168Z,67.11
2018-07-13T01:54:15.766Z,66.75
2018-07-13T01:56:44.337Z,66.92
2018-07-13T01:59:12.983Z,66.36
2018-07-13T02:01:41.534Z,66.56
2018-07-13T02:04:10.118Z,66.55
2018-07-13T02:06:43.105Z,66.38
2018-07-13T02:09:12.000Z,66.80
2018-07-13T02:11:40.712Z,65.80
2018-07-13T02:14:09.301Z,66.58
2018-07-13T02:16:38.018Z,66.35
2018-07-13T02:19:06.992Z,66.52
2018-07-13T02:21:35.736Z,66.91
2018-07-13T02:24:04.323Z,67.07
2018-07-13T02:26:32.907Z,66.87
2018-07-13T02:29:01.474Z,67.12
2018-07-13T02:31:30.521Z,67.56
2018-07-13T02:33:59.320Z,67.37
2018-07-13T02:36:27.854Z,66.53
2018-07-13T02:38:56.439Z,67.00
2018-07-13T02:41:25.371Z,66.98
2018-07-13T02:43:54.037Z,66.80
2018-07-13T02:46:22.645Z,67.45
2018-07-13T02:48:51.203Z,66.74
2018-07-13T02:51:19.853Z,66.46
2018-07-13T02:53:48.449Z,66.74
2018-07-13T02:56:17.025Z,66.76
2018-07-13T02:58:45.615Z,66.71
2018-07-13T03:01:14.237Z,66.54
2018-07-13T03:03:42.831Z,66.75
2018-07-13T03:06:11.366Z,67.02
2018-07-13T03:08:39.941Z,67.36
2018-07-13T03:11:08.699Z,67.59
2018-07-13T03:13:37.277Z,67.60
2018-07-13T03:16:05.960Z,67.59
2018-07-13T03:18:34.661Z,67.53
2018-07-13T03:21:03.237Z,67.81
2018-07-13T03:23:31.916Z,67.83
2018-07-13T03:26:00.608Z,67.72
2018-07-13T03:28:29.208Z,68.16
2018-07-13T03:30:57.806Z,67.89
2018-07-13T03:33:26.480Z,68.04
2018-07-13T03:35:55.086Z,68.39
2018-07-13T03:38:23.637Z,68.04
2018-07-13T03:40:52.213Z,68.11
2018-07-13T03:43:20.825Z,67.17
2018-07-13T03:45:49.419Z,67.72
2018-07-13T03:48:18.102Z,68.14
2018-07-13T03:50:46.671Z,68.36
2018-07-13T03:53:15.537Z,68.56
2018-07-13T03:55:44.108Z,68.48
2018-07-13T03:58:13.099Z,68.78
2018-07-13T04:00:41.630Z,68.31
2018-07-13T04:03:10.920Z,68.90
2018-07-13T04:05:43.357Z,69.02
2018-07-13T04:08:17.219Z,69.29
2018-07-13T04:10:45.824Z,69.71
2018-07-13T04:13:16.042Z,70.10
2018-07-13T04:15:44.645Z,70.41
2018-07-13T04:18:18.156Z,70.87
2018-07-13T04:20:46.858Z,71.36
2018-07-13T04:23:15.867Z,71.15
2018-07-13T04:25:44.469Z,71.07
2018-07-13T04:28:13.227Z,70.85
2018-07-13T04:30:42.410Z,70.15
2018-07-13T04:33:11.017Z,69.48
2018-07-13T04:35:39.997Z,69.93
2018-07-13T04:38:08.592Z,69.51
2018-07-13T04:40:37.202Z,68.99
2018-07-13T04:43:05.792Z,69.13
2018-07-13T04:45:34.405Z,68.93
2018-07-13T04:48:03.150Z,68.59
2018-07-13T04:50:31.866Z,68.44
2018-07-13T04:53:00.909Z,68.33
2018-07-13T04:55:29.781Z,68.70
2018-07-13T04:57:58.470Z,68.54
2018-07-13T05:00:27.550Z,68.35
2018-07-13T05:02:56.165Z,68.66
2018-07-13T05:05:24.811Z,67.63
2018-07-13T05:07:53.380Z,67.96
2018-07-13T05:10:22.523Z,68.23
2018-07-13T05:12:51.185Z,67.55
2018-07-13T05:15:19.884Z,67.98
2018-07-13T05:17:48.461Z,68.23
2018-07-13T05:20:17.078Z,67.64
2018-07-13T05:22:45.652Z,67.01
2018-07-13T05:25:14.842Z,67.49
2018-07-13T05:27:43.655Z,66.69
2018-07-13T05:30:12.273Z,65.45
2018-07-13T05:32:41.156Z,65.08
2018-07-13T05:35:09.906Z,63.90
2018-07-13T05:37:38.680Z,63.50
2018-07-13T05:40:07.324Z,63.89
2018-07-13T05:42:35.921Z,62.94
2018-07-13T05:45:05.110Z,61.91
2018-07-13T05:47:33.718Z,61.43
2018-07-13T05:50:02.316Z,60.76
2018-07-13T05:52:30.946Z,60.44
2018-07-13T05:55:00.281Z,60.32
2018-07-13T05:57:28.941Z,59.52
2018-07-13T05:59:57.551Z,59.19
2018-07-13T06:02:26.205Z,58.36
2018-07-13T06:04:54.808Z,58.28
2018-07-13T06:07:30.511Z,57.80
2018-07-13T06:09:59.121Z,57.97
2018-07-13T06:12:27.919Z,57.13
2018-07-13T06:14:56.519Z,57.26
2018-07-13T06:17:25.093Z,57.38
2018-07-13T06:19:53.685Z,57.11
2018-07-13T06:22:22.439Z,57.32
2018-07-13T06:24:50.984Z,56.73
2018-07-13T06:27:19.546Z,57.71
2018-07-13T06:29:48.135Z,56.87
2018-07-13T06:32:16.712Z,56.30
2018-07-13T06:34:45.326Z,56.49
2018-07-13T06:37:14.010Z,56.78
2018-07-13T06:39:42.788Z,56.84
2018-07-13T06:42:11.401Z,56.30
2018-07-13T06:44:40.075Z,55.97
2018-07-13T06:47:08.607Z,55.25
2018-07-13T06:49:37.188Z,55.15
2018-07-13T06:52:06.100Z,54.63
2018-07-13T06:54:34.672Z,53.73
2018-07-13T06:57:04.269Z,52.99
2018-07-13T06:59:32.876Z,53.44
2018-07-13T07:02:01.485Z,53.15
2018-07-13T07:04:34.572Z,53.09
2018-07-13T07:07:09.536Z,51.75
2018-07-13T07:09:39.252Z,51.44
2018-07-13T07:12:54.524Z,50.94
2018-07-13T07:15:24.318Z,51.15
2018-07-13T07:17:53.703Z,51.03
2018-07-13T07:20:22.315Z,51.25
2018-07-13T07:22:50.955Z,50.54
2018-07-13T07:25:19.621Z,49.21
2018-07-13T07:27:48.212Z,48.59
2018-07-13T07:30:16.867Z,48.66
2018-07-13T07:32:45.797Z,48.06
2018-07-13T07:35:15.095Z,48.09
2018-07-13T07:37:43.704Z,47.89
2018-07-13T07:40:12.332Z,47.79
2018-07-13T07:42:41.336Z,48.74
2018-07-13T07:45:10.127Z,48.20
2018-07-13T07:47:38.748Z,47.66
2018-07-13T07:50:07.504Z,48.13
2018-07-13T07:52:36.350Z,47.86
2018-07-13T07:55:04.992Z,47.66
2018-07-13T07:57:33.662Z,47.99
2018-07-13T08:00:02.222Z,47.14
2018-07-13T08:02:30.816Z,48.11
2018-07-13T08:04:59.545Z,47.54
2018-07-13T08:07:28.114Z,47.44
2018-07-13T08:09:56.683Z,47.18
2018-07-13T08:12:25.276Z,47.12
2018-07-13T08:14:53.877Z,46.90
2018-07-13T08:17:22.542Z,47.22
2018-07-13T08:19:51.211Z,47.51
2018-07-13T08:22:31.328Z,46.43
2018-07-13T08:25:00.361Z,46.86
2018-07-13T08:27:35.681Z,46.04
2018-07-13T08:30:05.799Z,46.80
2018-07-13T08:32:34.377Z,46.63
2018-07-13T08:35:02.964Z,47.12
2018-07-13T08:37:31.529Z,46.78
2018-07-13T08:40:00.138Z,46.05
2018-07-13T08:42:28.771Z,46.58
2018-07-13T08:44:57.340Z,45.70
2018-07-13T08:47:26.107Z,45.71
2018-07-13T08:49:54.704Z,45.17
2018-07-13T08:52:23.880Z,45.42
2018-07-13T08:54:52.498Z,45.57
2018-07-13T08:57:21.073Z,44.37
2018-07-13T08:59:49.733Z,45.76
2018-07-13T09:02:18.348Z,45.72
2018-07-13T09:04:46.974Z,44.39
2018-07-13T09:07:15.541Z,44.74
2018-07-13T09:09:44.142Z,44.94
2018-07-13T09:12:12.742Z,44.13
2018-07-13T09:14:42.404Z,43.82
2018-07-13T09:17:11.121Z,42.81
2018-07-13T09:19:39.720Z,43.75
2018-07-13T09:22:08.404Z,43.68
2018-07-13T09:24:37.018Z,44.26
2018-07-13T09:27:05.720Z,44.37
2018-07-13T09:29:34.361Z,43.28
2018-07-13T09:32:02.984Z,43.01
2018-07-13T09:34:31.580Z,43.56
2018-07-13T09:37:00.132Z,43.30
2018-07-13T09:39:28.893Z,44.22
2018-07-13T09:41:57.485Z,42.64
2018-07-13T09:44:29.010Z,43.98
2018-07-13T09:46:57.705Z,42.73
2018-07-13T09:49:26.234Z,43.68
2018-07-13T09:51:54.881Z,44.16
2018-07-13T09:54:24.314Z,43.93
2018-07-13T09:56:53.084Z,44.80
2018-07-13T09:59:21.832Z,44.81
2018-07-13T10:01:50.419Z,45.37
2018-07-13T10:04:19.040Z,45.47
2018-07-13T10:06:47.757Z,44.46
2018-07-13T10:09:16.419Z,44.97
2018-07-13T10:11:45.042Z,44.87
2018-07-13T10:14:13.629Z,44.80
2018-07-13T10:19:32.610Z,46.26
2018-07-13T10:22:01.455Z,46.26
2018-07-13T10:24:31.264Z,46.08
2018-07-13T10:26:59.931Z,45.48
2018-07-13T10:29:37.097Z,46.09
2018-07-13T10:32:05.738Z,46.41
2018-07-13T10:34:34.806Z,47.11
2018-07-13T10:37:05.085Z,46.24
2018-07-13T10:39:34.416Z,47.13
2018-07-13T10:42:03.001Z,47.33
2018-07-13T10:44:31.652Z,47.07
2018-07-13T10:47:00.351Z,47.07
2018-07-13T10:49:29.118Z,47.64
2018-07-13T10:51:57.665Z,48.01
2018-07-13T10:54:26.436Z,47.24
2018-07-13T10:56:55.082Z,47.19
2018-07-13T10:59:23.631Z,46.91
2018-07-13T11:01:52.199Z,47.40
2018-07-13T11:04:20.999Z,47.45
2018-07-13T11:06:49.562Z,46.97
2018-07-13T11:09:18.964Z,47.71
2018-07-13T11:11:47.550Z,47.44
2018-07-13T11:14:16.112Z,47.73
2018-07-13T11:16:44.712Z,47.31
2018-07-13T11:19:15.270Z,47.64
2018-07-13T11:21:43.907Z,48.08
2018-07-13T11:24:12.501Z,47.76
2018-07-13T11:26:41.121Z,47.55
2018-07-13T11:29:10.036Z,47.94
2018-07-13T11:31:38.736Z,46.58
2018-07-13T11:34:07.478Z,47.37
2018-07-13T11:36:36.104Z,47.47
2018-07-13T11:39:05.789Z,46.87
2018-07-13T11:41:34.424Z,46.97
2018-07-13T11:44:03.075Z,48.05
2018-07-13T11:46:31.660Z,50.95
2018-07-13T11:49:00.295Z,52.75
2018-07-13T11:51:29.005Z,54.44
2018-07-13T11:53:58.289Z,54.81
2018-07-13T11:56:26.852Z,55.40
2018-07-13T11:58:55.517Z,55.99
2018-07-13T12:01:24.157Z,56.77
2018-07-13T12:03:52.772Z,56.36
2018-07-13T12:06:22.187Z,56.60
2018-07-13T12:08:50.865Z,56.36
2018-07-13T12:11:19.584Z,53.05
2018-07-13T12:13:48.165Z,53.36
2018-07-13T12:16:16.852Z,50.26
2018-07-13T12:18:45.448Z,51.24
2018-07-13T12:21:15.161Z,50.17
2018-07-13T12:23:43.774Z,50.05
2018-07-13T12:26:12.360Z,49.57
2018-07-13T12:28:41.123Z,50.37
2018-07-13T12:31:09.835Z,49.77
2018-07-13T12:33:38.450Z,49.26
2018-07-13T12:36:07.106Z,48.59
2018-07-13T12:38:35.707Z,48.54
2018-07-13T12:41:04.337Z,47.85
2018-07-13T12:43:32.901Z,47.57
2018-07-13T12:46:01.472Z,46.31
2018-07-13T12:48:30.074Z,47.34
2018-07-13T12:50:58.648Z,46.40
2018-07-13T12:53:27.242Z,47.41
2018-07-13T12:55:55.841Z,47.29
2018-07-13T12:58:24.505Z,47.06
2018-07-13T13:00:53.037Z,47.26
2018-07-13T13:03:21.653Z,47.33
2018-07-13T13:05:50.211Z,46.65
2018-07-13T13:08:19.118Z,46.31
2018-07-13T13:10:47.690Z,45.55
2018-07-13T13:13:16.312Z,46.60
2018-07-13T13:15:44.872Z,46.46
2018-07-13T13:18:13.425Z,47.56
2018-07-13T13:20:42.033Z,47.14
2018-07-13T13:23:10.798Z,46.83
2018-07-13T13:25:39.614Z,47.00
2018-07-13T13:28:08.238Z,46.78
2018-07-13T13:30:36.953Z,47.40
2018-07-13T13:33:05.609Z,46.57
2018-07-13T13:35:34.181Z,46.68
2018-07-13T13:38:02.766Z,46.61
2018-07-13T13:40:31.357Z,46.81
2018-07-13T13:42:59.942Z,47.05
2018-07-13T13:45:28.731Z,47.26
2018-07-13T13:47:57.307Z,45.99
2018-07-13T13:50:26.124Z,44.69
2018-07-13T13:52:54.812Z,45.43
2018-07-13T13:55:23.364Z,44.80
2018-07-13T13:57:51.964Z,44.01
2018-07-13T14:00:20.595Z,43.67
2018-07-13T14:02:50.090Z,43.94
2018-07-13T14:05:19.324Z,44.12
2018-07-13T14:07:49.938Z,44.66
2018-07-13T14:10:18.528Z,44.90
2018-07-13T14:12:47.299Z,45.07
2018-07-13T14:15:16.277Z,45.28
2018-07-13T14:17:44.818Z,45.55
2018-07-13T14:20:13.425Z,44.64
2018-07-13T14:22:41.984Z,44.13
2018-07-13T14:25:10.694Z,44.92
2018-07-13T14:27:39.467Z,44.08
2018-07-13T14:30:08.215Z,44.62
2018-07-13T14:32:36.947Z,45.00
2018-07-13T14:35:05.786Z,44.52
2018-07-13T14:37:34.796Z,44.42
2018-07-13T14:40:03.536Z,45.30
2018-07-13T14:42:32.064Z,45.57
2018-07-13T14:45:00.720Z,45.63
2018-07-13T14:47:29.460Z,46.28
2018-07-13T14:49:58.078Z,46.09
2018-07-13T14:52:26.879Z,46.20
2018-07-13T14:54:55.457Z,46.92
2018-07-13T14:57:24.172Z,47.59
2018-07-13T14:59:52.714Z,47.90
2018-07-13T15:02:21.329Z,48.14
2018-07-13T15:04:49.936Z,48.03
2018-07-13T15:07:18.669Z,48.08
2018-07-13T15:09:47.429Z,48.31
2018-07-13T15:12:16.006Z,48.16
2018-07-13T15:14:44.586Z,49.10
2018-07-13T15:17:13.791Z,48.53
2018-07-13T15:19:42.395Z,49.35
2018-07-13T15:22:10.960Z,49.33
2018-07-13T15:24:39.825Z,49.35
2018-07-13T15:27:10.504Z,49.39
2018-07-13T15:29:39.174Z,48.68
2018-07-13T15:32:07.853Z,48.23
2018-07-13T15:34:36.430Z,47.22
2018-07-13T15:37:05.052Z,47.17
2018-07-13T15:39:33.617Z,46.73
2018-07-13T15:42:02.271Z,46.28
2018-07-13T15:44:30.823Z,46.61
2018-07-13T15:46:59.390Z,44.00
2018-07-13T15:49:28.036Z,45.52
2018-07-13T15:51:56.606Z,45.71
2018-07-13T15:54:25.486Z,45.11
2018-07-13T15:56:54.150Z,45.29
2018-07-13T15:59:22.911Z,44.18
2018-07-13T16:01:51.544Z,43.34
2018-07-13T16:04:20.250Z,42.93
2018-07-13T16:06:49.616Z,42.91
2018-07-13T16:09:18.263Z,40.53
2018-07-13T16:11:48.531Z,40.92
2018-07-13T16:14:17.292Z,40.11
2018-07-13T16:16:46.081Z,39.93
2018-07-13T16:19:15.391Z,39.29
2018-07-13T16:21:44.084Z,39.36
2018-07-13T16:24:12.663Z,38.66
2018-07-13T16:26:41.261Z,37.94
2018-07-13T16:29:09.885Z,37.74
2018-07-13T16:31:38.504Z,38.09
2018-07-13T16:34:07.128Z,37.89
2018-07-13T16:36:35.814Z,38.44
2018-07-13T16:39:04.983Z,37.03
2018-07-13T16:41:33.576Z,37.27
2018-07-13T16:44:02.265Z,37.55
2018-07-13T16:46:31.150Z,37.46
2018-07-13T16:48:59.921Z,36.57
2018-07-13T16:51:28.486Z,36.76
2018-07-13T16:53:57.347Z,37.35
2018-07-13T16:56:25.952Z,36.89
2018-07-13T16:58:54.480Z,37.99
2018-07-13T17:01:23.062Z,38.70
2018-07-13T17:03:51.666Z,38.79
2018-07-13T17:06:20.232Z,37.96
2018-07-13T17:08:49.000Z,36.88
2018-07-13T17:11:17.625Z,37.53
2018-07-13T17:13:46.177Z,37.66
2018-07-13T17:16:14.912Z,37.94
2018-07-13T17:18:43.456Z,38.27
2018-07-13T17:21:12.809Z,37.90
2018-07-13T17:23:41.390Z,39.38
2018-07-13T17:26:10.598Z,38.92
2018-07-13T17:28:39.164Z,39.52
2018-07-13T17:31:07.840Z,39.60
2018-07-13T17:33:36.601Z,40.28
2018-07-13T17:36:05.168Z,41.00
2018-07-13T17:38:33.828Z,42.03
2018-07-13T17:41:02.548Z,42.48
2018-07-13T17:43:31.128Z,42.70
2018-07-13T17:45:59.779Z,44.61
2018-07-13T17:48:28.388Z,45.46
2018-07-13T17:50:56.939Z,46.71
2018-07-13T17:53:25.550Z,47.28
2018-07-13T17:55:54.124Z,47.58
2018-07-13T17:58:22.713Z,48.81
2018-07-13T18:00:51.366Z,50.02
2018-07-13T18:03:19.978Z,50.39
2018-07-13T18:05:48.804Z,50.44
2018-07-13T18:08:18.213Z,51.69
2018-07-13T18:10:47.425Z,52.84
2018-07-13T18:13:16.742Z,52.83
2018-07-13T18:15:45.315Z,52.86
2018-07-13T18:18:13.868Z,52.45
2018-07-13T18:20:42.416Z,52.66
2018-07-13T18:23:11.196Z,52.60
2018-07-13T18:25:39.797Z,52.63
2018-07-13T18:28:08.386Z,52.66
2018-07-13T18:30:37.020Z,52.61
2018-07-13T18:33:05.621Z,53.68
2018-07-13T18:35:34.220Z,53.77
2018-07-13T18:38:02.823Z,54.19
2018-07-13T18:40:31.503Z,54.31
2018-07-13T18:43:00.198Z,54.78
2018-07-13T18:45:28.993Z,55.34
2018-07-13T18:47:57.829Z,56.08
2018-07-13T18:50:26.775Z,55.79
2018-07-13T18:52:55.446Z,55.32
2018-07-13T18:55:23.984Z,54.79
2018-07-13T18:57:52.572Z,55.10
2018-07-13T19:00:21.136Z,55.81
2018-07-13T19:02:49.836Z,56.02
2018-07-13T19:05:18.931Z,56.21
2018-07-13T19:07:47.496Z,56.78
2018-07-13T19:10:16.039Z,57.61
2018-07-13T19:12:44.633Z,57.04
2018-07-13T19:15:13.364Z,57.26
2018-07-13T19:17:42.233Z,57.71
2018-07-13T19:20:10.976Z,57.67
2018-07-13T19:22:39.953Z,57.36
2018-07-13T19:25:08.660Z,58.17
2018-07-13T19:27:37.304Z,58.58
2018-07-13T19:30:05.895Z,58.95
2018-07-13T19:32:34.494Z,59.47
2018-07-13T19:35:03.177Z,58.89
2018-07-13T19:37:31.733Z,58.26
2018-07-13T19:40:00.372Z,58.13
2018-07-13T19:42:29.056Z,58.16
2018-07-13T19:44:57.583Z,57.70
2018-07-13T19:47:26.473Z,58.13
2018-07-13T19:49:55.096Z,57.87
2018-07-13T19:52:23.797Z,57.55
2018-07-13T19:54:52.392Z,56.84
2018-07-13T19:57:21.047Z,56.96
2018-07-13T19:59:49.560Z,57.23
2018-07-13T20:02:19.472Z,57.62
2018-07-13T20:04:48.046Z,57.03
2018-07-13T20:07:24.223Z,57.33
2018-07-13T20:09:55.716Z,58.00
2018-07-13T20:12:24.517Z,58.14
2018-07-13T20:14:53.124Z,59.61
2018-07-13T20:17:21.820Z,59.79
2018-07-13T20:19:50.481Z,59.43
2018-07-13T20:22:19.090Z,59.22
2018-07-13T20:24:47.668Z,58.88
2018-07-13T20:27:17.380Z,58.56
2018-07-13T20:29:46.008Z,58.98
2018-07-13T20:32:15.919Z,59.57
2018-07-13T20:34:44.757Z,59.86
2018-07-13T20:37:13.720Z,59.69
2018-07-13T20:39:42.372Z,59.20
2018-07-13T20:42:10.932Z,58.66
2018-07-13T20:44:39.543Z,58.69
2018-07-13T20:47:08.275Z,58.76
2018-07-13T20:49:37.037Z,58.81
2018-07-13T20:52:05.745Z,59.10
2018-07-13T20:54:34.363Z,59.62
2018-07-13T20:57:05.377Z,59.96
2018-07-13T20:59:34.139Z,60.00
2018-07-13T21:02:02.852Z,60.58
2018-07-13T21:04:32.329Z,60.65
2018-07-13T21:07:00.901Z,61.19
2018-07-13T21:09:29.528Z,61.30
2018-07-13T21:11:58.171Z,61.52
2018-07-13T21:14:26.794Z,61.52
2018-07-13T21:16:55.382Z,62.51
2018-07-13T21:19:24.076Z,61.77
2018-07-13T21:21:52.714Z,61.85
2018-07-13T21:24:21.379Z,61.21
2018-07-13T21:26:50.046Z,60.69
2018-07-13T21:29:18.543Z,60.83
2018-07-13T21:31:47.188Z,61.64
2018-07-13T21:34:15.919Z,61.79
2018-07-13T21:36:44.501Z,62.88
2018-07-13T21:39:13.520Z,62.91
2018-07-13T21:41:42.076Z,62.44
2018-07-13T21:44:10.681Z,62.78
2018-07-13T21:46:39.373Z,62.19
2018-07-13T21:49:08.052Z,62.24
2018-07-13T21:51:36.684Z,62.24
2018-07-13T21:54:05.501Z,62.49
2018-07-13T21:56:34.088Z,62.98
2018-07-13T21:59:02.865Z,63.36
2018-07-13T22:01:31.456Z,63.55
2018-07-13T22:04:00.047Z,63.33
2018-07-13T22:06:31.119Z,62.93
2018-07-13T22:09:00.243Z,62.62
2018-07-13T22:11:28.832Z,62.80
2018-07-13T22:13:57.486Z,62.71
2018-07-13T22:16:26.066Z,62.67
2018-07-13T22:18:54.601Z,62.57
2018-07-13T22:21:23.213Z,62.74
2018-07-13T22:23:51.811Z,62.56
2018-07-13T22:26:20.516Z,62.40
2018-07-13T22:28:49.410Z,62.80
2018-07-13T22:31:17.973Z,62.54
2018-07-13T22:33:46.536Z,62.22
2018-07-13T22:36:15.098Z,63.23
2018-07-13T22:38:43.656Z,63.18
2018-07-13T22:41:12.941Z,62.72
2018-07-13T22:43:41.830Z,63.08
2018-07-13T22:46:10.431Z,62.42
2018-07-13T22:48:39.009Z,62.49
2018-07-13T22:51:07.707Z,62.54
2018-07-13T22:53:37.076Z,62.72
2018-07-13T22:56:05.932Z,62.93
2018-07-13T22:58:34.572Z,62.49
2018-07-13T23:01:03.145Z,62.20
2018-07-13T23:03:31.889Z,62.68
2018-07-13T23:06:01.733Z,62.60
2018-07-13T23:08:30.295Z,62.37
2018-07-13T23:10:59.445Z,62.40
2018-07-13T23:13:28.234Z,62.55
2018-07-13T23:15:57.055Z,62.09
2018-07-13T23:18:25.643Z,62.59
2018-07-13T23:20:54.203Z,62.78
2018-07-13T23:23:22.818Z,63.17
2018-07-13T23:25:51.392Z,62.94
2018-07-13T23:28:19.994Z,62.95
2018-07-13T23:30:48.641Z,62.64
2018-07-13T23:33:17.284Z,62.64
2018-07-13T23:35:46.207Z,62.94
2018-07-13T23:38:14.981Z,63.93
2018-07-13T23:40:43.630Z,64.12
2018-07-13T23:43:12.593Z,64.24
2018-07-13T23:45:41.230Z,64.48
2018-07-13T23:48:09.962Z,65.00
2018-07-13T23:50:38.580Z,65.18
2018-07-13T23:53:07.208Z,65.54
2018-07-13T23:55:36.015Z,65.86
2018-07-13T23:58:04.648Z,65.37
